Terminal Aerodrome Forecast
Issued by NWS

Home | Current Version | Previous Version | Graphics & Text | Print | Product List | Glossary On
Versions: 1 2 3 4 5 6 7 8 9 10 11 12 13 14 15 16 17 18 19 20 21 22 23
000
FTUS42 KMHX 012331
TAFOAJ
TAF
KOAJ 012331Z 0200/0224 30003KT 5SM -RADZ OVC009
     FM020700 24003KT 3SM BR OVC006
     FM021400 28005KT P6SM SCT007 OVC025
     FM021800 35010KT P6SM SCT025 BKN050
      AMD LTD TO CLD VIS AND WIND=

USA.gov is the U.S. government's official web portal to all federal, state and local government web resources and services.